Terminal Aerodrome Forecast
Issued by NWS

Home | Current Version | Previous Version | Text Only | Print | Product List | Glossary Off
Versions: 1 2 3 4 5 6 7 8 9 10 11 12 13 14 15 16 17 18 19 20 21 22

000
FTUS43 KBIS 220000 AAA
TAFMOT
TAF AMD
KMOT 220043Z 2201/2224 01011KT P6SM VCSH BKN020 BKN030
      TEMPO 2201/2203 SCT020 OVC080
     FM220300 36009KT P6SM SCT015 BKN090
     FM220600 35007KT P6SM VCFG BKN011 BKN025
     FM221400 03006KT P6SM SCT050=

USA.gov is the U.S. government's official web portal to all federal, state and local government web resources and services.